sensor_id;sensor_type;location;lat;lon;timestamp;pressure;altitude;pressure_sealevel;temperature;humidity
11314;BME280;5712;48.858;9.206;2023-08-07T00:02:19;97972.75;;;12.59;100.00
11314;BME280;5712;48.858;9.206;2023-08-07T00:04:46;97959.50;;;12.59;100.00
11314;BME280;5712;48.858;9.206;2023-08-07T00:07:12;97963.06;;;12.58;100.00
11314;BME280;5712;48.858;9.206;2023-08-07T00:09:39;97966.47;;;12.60;100.00
11314;BME280;5712;48.858;9.206;2023-08-07T00:12:06;97969.84;;;12.62;100.00
11314;BME280;5712;48.858;9.206;2023-08-07T00:14:33;97969.59;;;12.65;100.00
11314;BME280;5712;48.858;9.206;2023-08-07T00:17:00;97962.84;;;12.61;100.00
11314;BME280;5712;48.858;9.206;2023-08-07T00:19:27;97970.81;;;12.61;100.00
11314;BME280;5712;48.858;9.206;2023-08-07T00:21:54;97971.50;;;12.63;100.00
11314;BME280;5712;48.858;9.206;2023-08-07T00:24:20;97969.72;;;12.63;100.00
11314;BME280;5712;48.858;9.206;2023-08-07T00:26:47;97968.53;;;12.56;100.00
11314;BME280;5712;48.858;9.206;2023-08-07T00:29:13;97972.75;;;12.59;100.00
11314;BME280;5712;48.858;9.206;2023-08-07T00:31:41;97970.81;;;12.61;100.00
11314;BME280;5712;48.858;9.206;2023-08-07T00:34:08;97977.09;;;12.60;100.00
11314;BME280;5712;48.858;9.206;2023-08-07T00:36:35;97976.81;;;12.63;100.00
11314;BME280;5712;48.858;9.206;2023-08-07T00:39:01;97965.13;;;12.65;100.00
11314;BME280;5712;48.858;9.206;2023-08-07T00:41:28;97981.03;;;12.65;100.00
11314;BME280;5712;48.858;9.206;2023-08-07T00:43:55;97980.91;;;12.67;100.00
11314;BME280;5712;48.858;9.206;2023-08-07T00:46:21;97982.38;;;12.71;100.00
11314;BME280;5712;48.858;9.206;2023-08-07T00:48:51;97983.31;;;12.70;100.00
11314;BME280;5712;48.858;9.206;2023-08-07T00:51:19;97975.34;;;12.70;100.00
11314;BME280;5712;48.858;9.206;2023-08-07T00:53:46;97974.41;;;12.71;100.00
11314;BME280;5712;48.858;9.206;2023-08-07T00:56:14;97976.69;;;12.75;100.00
11314;BME280;5712;48.858;9.206;2023-08-07T00:58:41;97981.41;;;12.72;100.00
11314;BME280;5712;48.858;9.206;2023-08-07T01:01:08;97982.38;;;12.71;100.00
11314;BME280;5712;48.858;9.206;2023-08-07T01:03:34;97984.06;;;12.72;100.00
11314;BME280;5712;48.858;9.206;2023-08-07T01:06:02;97975.59;;;12.78;100.00
11314;BME280;5712;48.858;9.206;2023-08-07T01:08:30;97977.53;;;12.76;100.00
11314;BME280;5712;48.858;9.206;2023-08-07T01:11:07;97982.38;;;12.71;100.00
11314;BME280;5712;48.858;9.206;2023-08-07T01:13:40;97986.13;;;12.68;100.00
11314;BME280;5712;48.858;9.206;2023-08-07T01:16:13;97986.13;;;12.68;100.00
11314;BME280;5712;48.858;9.206;2023-08-07T01:18:42;97985.03;;;12.71;100.00
11314;BME280;5712;48.858;9.206;2023-08-07T01:21:18;97986.94;;;12.69;100.00
11314;BME280;5712;48.858;9.206;2023-08-07T01:23:47;97980.44;;;12.73;100.00
11314;BME280;5712;48.858;9.206;2023-08-07T01:26:13;97983.56;;;12.67;100.00
11314;BME280;5712;48.858;9.206;2023-08-07T01:28:43;97992.00;;;12.72;100.00
11314;BME280;5712;48.858;9.206;2023-08-07T01:31:14;97979.94;;;12.68;100.00
11314;BME280;5712;48.858;9.206;2023-08-07T01:33:48;97985.38;;;12.66;100.00
11314;BME280;5712;48.858;9.206;2023-08-07T01:36:17;97990.06;;;12.74;100.00
11314;BME280;5712;48.858;9.206;2023-08-07T01:38:44;97985.63;;;12.74;100.00
11314;BME280;5712;48.858;9.206;2023-08-07T01:41:13;97988.38;;;12.73;100.00
11314;BME280;5712;48.858;9.206;2023-08-07T01:43:40;97980.66;;;12.70;100.00
11314;BME280;5712;48.858;9.206;2023-08-07T01:46:07;97982.81;;;12.76;100.00
11314;BME280;5712;48.858;9.206;2023-08-07T01:48:33;97987.69;;;12.71;100.00
11314;BME280;5712;48.858;9.206;2023-08-07T01:51:00;97985.47;;;12.76;100.00
11314;BME280;5712;48.858;9.206;2023-08-07T01:53:26;97986.44;;;12.75;100.00
11314;BME280;5712;48.858;9.206;2023-08-07T01:55:53;97984.44;;;12.67;100.00
11314;BME280;5712;48.858;9.206;2023-08-07T01:58:20;97994.19;;;12.67;100.00
11314;BME280;5712;48.858;9.206;2023-08-07T02:00:47;97996.34;;;12.62;100.00
11314;BME280;5712;48.858;9.206;2023-08-07T02:03:14;97985.25;;;12.68;100.00
11314;BME280;5712;48.858;9.206;2023-08-07T02:05:40;97986.72;;;12.72;100.00
11314;BME280;5712;48.858;9.206;2023-08-07T02:08:06;97986.72;;;12.72;100.00
11314;BME280;5712;48.858;9.206;2023-08-07T02:10:33;97980.53;;;12.71;100.00
11314;BME280;5712;48.858;9.206;2023-08-07T02:13:00;97983.81;;;12.64;100.00
11314;BME280;5712;48.858;9.206;2023-08-07T02:15:28;97983.19;;;12.71;100.00
11314;BME280;5712;48.858;9.206;2023-08-07T02:17:54;97987.78;;;12.69;100.00
11314;BME280;5712;48.858;9.206;2023-08-07T02:20:21;97983.31;;;12.70;100.00
11314;BME280;5712;48.858;9.206;2023-08-07T02:22:47;97995.88;;;12.68;100.00
11314;BME280;5712;48.858;9.206;2023-08-07T02:25:14;97998.50;;;12.68;100.00
11314;BME280;5712;48.858;9.206;2023-08-07T02:27:41;98010.31;;;12.64;100.00
11314;BME280;5712;48.858;9.206;2023-08-07T02:30:08;98011.88;;;12.66;100.00
11314;BME280;5712;48.858;9.206;2023-08-07T02:32:36;98008.91;;;12.60;100.00
11314;BME280;5712;48.858;9.206;2023-08-07T02:35:03;98012.25;;;12.51;100.00
11314;BME280;5712;48.858;9.206;2023-08-07T02:37:29;98018.53;;;12.50;100.00
11314;BME280;5712;48.858;9.206;2023-08-07T02:39:56;98019.59;;;12.47;100.00
11314;BME280;5712;48.858;9.206;2023-08-07T02:42:22;98011.53;;;12.49;100.00
11314;BME280;5712;48.858;9.206;2023-08-07T02:44:49;98011.53;;;12.49;100.00
11314;BME280;5712;48.858;9.206;2023-08-07T02:47:15;98021.53;;;12.45;100.00
11314;BME280;5712;48.858;9.206;2023-08-07T02:49:43;98013.69;;;12.44;100.00
11314;BME280;5712;48.858;9.206;2023-08-07T02:52:10;98016.34;;;12.44;100.00
11314;BME280;5712;48.858;9.206;2023-08-07T02:54:36;98018.19;;;12.43;100.00
11314;BME280;5712;48.858;9.206;2023-08-07T02:57:03;98026.34;;;12.40;100.00
11314;BME280;5712;48.858;9.206;2023-08-07T02:59:29;98027.53;;;12.36;100.00
11314;BME280;5712;48.858;9.206;2023-08-07T03:01:56;98026.94;;;12.33;100.00
11314;BME280;5712;48.858;9.206;2023-08-07T03:04:23;98013.69;;;12.33;100.00
11314;BME280;5712;48.858;9.206;2023-08-07T03:06:50;98021.66;;;12.33;100.00
11314;BME280;5712;48.858;9.206;2023-08-07T03:09:17;98021.91;;;12.30;100.00
11314;BME280;5712;48.858;9.206;2023-08-07T03:11:43;98020.69;;;12.23;100.00
11314;BME280;5712;48.858;9.206;2023-08-07T03:14:10;98027.41;;;12.27;100.00
11314;BME280;5712;48.858;9.206;2023-08-07T03:16:36;98024.91;;;12.25;100.00
11314;BME280;5712;48.858;9.206;2023-08-07T03:19:03;98022.00;;;12.28;100.00
11314;BME280;5712;48.858;9.206;2023-08-07T03:21:29;98028.88;;;12.31;100.00
11314;BME280;5712;48.858;9.206;2023-08-07T03:23:57;98024.28;;;12.33;100.00
11314;BME280;5712;48.858;9.206;2023-08-07T03:26:24;98031.16;;;12.35;100.00
11314;BME280;5712;48.858;9.206;2023-08-07T03:28:50;98030.34;;;12.35;100.00
11314;BME280;5712;48.858;9.206;2023-08-07T03:31:17;98025.66;;;12.38;100.00
11314;BME280;5712;48.858;9.206;2023-08-07T03:33:43;98031.78;;;12.39;100.00
11314;BME280;5712;48.858;9.206;2023-08-07T03:36:10;98028.41;;;12.37;100.00
11314;BME280;5712;48.858;9.206;2023-08-07T03:38:37;98016.72;;;12.39;100.00
11314;BME280;5712;48.858;9.206;2023-08-07T03:41:04;98024.06;;;12.36;100.00
11314;BME280;5712;48.858;9.206;2023-08-07T03:43:31;98022.63;;;12.43;100.00
11314;BME280;5712;48.858;9.206;2023-08-07T03:45:58;98029.25;;;12.37;100.00
11314;BME280;5712;48.858;9.206;2023-08-07T03:48:24;98034.41;;;12.39;100.00
11314;BME280;5712;48.858;9.206;2023-08-07T03:50:51;98033.22;;;12.43;100.00
11314;BME280;5712;48.858;9.206;2023-08-07T03:53:17;98036.59;;;12.45;100.00
11314;BME280;5712;48.858;9.206;2023-08-07T03:55:49;98029.59;;;12.44;100.00
11314;BME280;5712;48.858;9.206;2023-08-07T03:58:17;98021.91;;;12.41;100.00
11314;BME280;5712;48.858;9.206;2023-08-07T04:00:43;98029.59;;;12.44;100.00
11314;BME280;5712;48.858;9.206;2023-08-07T04:03:10;98034.91;;;12.44;100.00
11314;BME280;5712;48.858;9.206;2023-08-07T04:05:36;98039.03;;;12.48;100.00
11314;BME280;5712;48.858;9.206;2023-08-07T04:08:04;98036.38;;;12.48;100.00
11314;BME280;5712;48.858;9.206;2023-08-07T04:10:30;98045.50;;;12.44;100.00
11314;BME280;5712;48.858;9.206;2023-08-07T04:12:57;98042.97;;;12.42;100.00
11314;BME280;5712;48.858;9.206;2023-08-07T04:15:25;98042.63;;;12.36;100.00
11314;BME280;5712;48.858;9.206;2023-08-07T04:17:53;98057.09;;;12.43;100.00
11314;BME280;5712;48.858;9.206;2023-08-07T04:20:19;98040.00;;;12.47;100.00
11314;BME280;5712;48.858;9.206;2023-08-07T04:22:46;98052.97;;;12.50;100.00
11314;BME280;5712;48.858;9.206;2023-08-07T04:25:12;98059.50;;;12.46;100.00
11314;BME280;5712;48.858;9.206;2023-08-07T04:27:39;98060.94;;;12.50;100.00
11314;BME280;5712;48.858;9.206;2023-08-07T04:30:06;98054.94;;;12.48;100.00
11314;BME280;5712;48.858;9.206;2023-08-07T04:32:34;98060.94;;;12.50;100.00
11314;BME280;5712;48.858;9.206;2023-08-07T04:35:01;98061.78;;;12.50;100.00
11314;BME280;5712;48.858;9.206;2023-08-07T04:37:27;98057.09;;;12.54;100.00
11314;BME280;5712;48.858;9.206;2023-08-07T04:39:55;98064.56;;;12.60;100.00
11314;BME280;5712;48.858;9.206;2023-08-07T04:42:22;98067.44;;;12.57;100.00
11314;BME280;5712;48.858;9.206;2023-08-07T04:44:48;98062.28;;;12.55;100.00
11314;BME280;5712;48.858;9.206;2023-08-07T04:47:15;98053.69;;;12.52;100.00
11314;BME280;5712;48.858;9.206;2023-08-07T04:49:43;98062.41;;;12.54;100.00
11314;BME280;5712;48.858;9.206;2023-08-07T04:52:09;98065.41;;;12.60;100.00
11314;BME280;5712;48.858;9.206;2023-08-07T04:54:36;98059.50;;;12.68;100.00
11314;BME280;5712;48.858;9.206;2023-08-07T04:57:03;98064.31;;;12.63;100.00
11314;BME280;5712;48.858;9.206;2023-08-07T04:59:29;98070.09;;;12.68;100.00
11314;BME280;5712;48.858;9.206;2023-08-07T05:01:57;98070.38;;;12.65;100.00
11314;BME280;5712;48.858;9.206;2023-08-07T05:04:23;98080.72;;;12.68;100.00
11314;BME280;5712;48.858;9.206;2023-08-07T05:06:51;98084.72;;;12.73;100.00
11314;BME280;5712;48.858;9.206;2023-08-07T05:09:18;98092.53;;;12.75;100.00
11314;BME280;5712;48.858;9.206;2023-08-07T05:11:44;98080.00;;;12.77;100.00
11314;BME280;5712;48.858;9.206;2023-08-07T05:14:11;98086.88;;;12.79;100.00
11314;BME280;5712;48.858;9.206;2023-08-07T05:16:38;98083.38;;;12.79;100.00
11314;BME280;5712;48.858;9.206;2023-08-07T05:19:04;98086.88;;;12.79;100.00
11314;BME280;5712;48.858;9.206;2023-08-07T05:21:31;98084.09;;;12.81;100.00
11314;BME280;5712;48.858;9.206;2023-08-07T05:23:59;98085.53;;;12.85;100.00
11314;BME280;5712;48.858;9.206;2023-08-07T05:26:25;98081.91;;;12.86;100.00
11314;BME280;5712;48.858;9.206;2023-08-07T05:28:53;98084.56;;;12.86;100.00
11314;BME280;5712;48.858;9.206;2023-08-07T05:31:22;98091.56;;;12.87;100.00
11314;BME280;5712;48.858;9.206;2023-08-07T05:33:49;98093.13;;;12.89;100.00
11314;BME280;5712;48.858;9.206;2023-08-07T05:36:15;98088.56;;;13.02;100.00
11314;BME280;5712;48.858;9.206;2023-08-07T05:38:42;98091.59;;;13.09;100.00
11314;BME280;5712;48.858;9.206;2023-08-07T05:41:09;98101.94;;;13.12;100.00
11314;BME280;5712;48.858;9.206;2023-08-07T05:43:36;98095.44;;;13.16;100.00
11314;BME280;5712;48.858;9.206;2023-08-07T05:46:02;98092.53;;;13.19;99.50
11314;BME280;5712;48.858;9.206;2023-08-07T05:48:29;98096.03;;;13.19;98.52
11314;BME280;5712;48.858;9.206;2023-08-07T05:50:56;98096.28;;;13.16;98.91
11314;BME280;5712;48.858;9.206;2023-08-07T05:53:22;98093.38;;;13.19;98.36
11314;BME280;5712;48.858;9.206;2023-08-07T05:55:49;98099.06;;;13.26;97.30
11314;BME280;5712;48.858;9.206;2023-08-07T05:58:17;98099.97;;;13.36;96.81
11314;BME280;5712;48.858;9.206;2023-08-07T06:00:44;98100.06;;;13.45;96.47
11314;BME280;5712;48.858;9.206;2023-08-07T06:03:11;98099.94;;;13.58;97.10
11314;BME280;5712;48.858;9.206;2023-08-07T06:05:38;98100.88;;;13.68;95.27
11314;BME280;5712;48.858;9.206;2023-08-07T06:08:04;98108.78;;;13.79;94.97
11314;BME280;5712;48.858;9.206;2023-08-07T06:10:31;98094.03;;;13.86;92.97
11314;BME280;5712;48.858;9.206;2023-08-07T06:12:57;98108.03;;;13.88;93.41
11314;BME280;5712;48.858;9.206;2023-08-07T06:15:25;98113.94;;;13.91;94.32
11314;BME280;5712;48.858;9.206;2023-08-07T06:17:52;98117.22;;;13.84;92.14
11314;BME280;5712;48.858;9.206;2023-08-07T06:20:19;98122.53;;;13.84;91.82
11314;BME280;5712;48.858;9.206;2023-08-07T06:22:45;98112.88;;;13.83;92.52
11314;BME280;5712;48.858;9.206;2023-08-07T06:25:12;98126.16;;;13.83;93.35
11314;BME280;5712;48.858;9.206;2023-08-07T06:27:38;98127.84;;;13.84;94.09
11314;BME280;5712;48.858;9.206;2023-08-07T06:30:06;98124.81;;;13.88;92.18
11314;BME280;5712;48.858;9.206;2023-08-07T06:32:34;98123.22;;;13.97;93.05
11314;BME280;5712;48.858;9.206;2023-08-07T06:35:02;98122.13;;;14.31;93.66
11314;BME280;5712;48.858;9.206;2023-08-07T06:37:29;98109.59;;;14.93;89.79
11314;BME280;5712;48.858;9.206;2023-08-07T06:39:56;98093.00;;;15.10;85.70
11314;BME280;5712;48.858;9.206;2023-08-07T06:42:22;98104.19;;;15.04;85.91
11314;BME280;5712;48.858;9.206;2023-08-07T06:44:49;98095.50;;;14.72;85.81
11314;BME280;5712;48.858;9.206;2023-08-07T06:47:15;98111.63;;;14.50;86.31
11314;BME280;5712;48.858;9.206;2023-08-07T06:49:43;98119.06;;;14.56;86.80
11314;BME280;5712;48.858;9.206;2023-08-07T06:52:10;98098.91;;;14.53;84.55
11314;BME280;5712;48.858;9.206;2023-08-07T06:54:36;98105.13;;;14.43;84.72
11314;BME280;5712;48.858;9.206;2023-08-07T06:57:03;98112.06;;;14.34;85.06
11314;BME280;5712;48.858;9.206;2023-08-07T06:59:30;98117.44;;;14.44;85.04
11314;BME280;5712;48.858;9.206;2023-08-07T07:01:57;98127.44;;;14.51;85.49
11314;BME280;5712;48.858;9.206;2023-08-07T07:04:23;98120.34;;;14.61;84.56
11314;BME280;5712;48.858;9.206;2023-08-07T07:06:51;98116.09;;;14.79;82.06
11314;BME280;5712;48.858;9.206;2023-08-07T07:09:18;98111.72;;;14.99;79.67
11314;BME280;5712;48.858;9.206;2023-08-07T07:11:44;98098.34;;;15.10;78.81
11314;BME280;5712;48.858;9.206;2023-08-07T07:14:11;98114.47;;;15.18;78.37
11314;BME280;5712;48.858;9.206;2023-08-07T07:16:37;98088.91;;;15.36;76.29
11314;BME280;5712;48.858;9.206;2023-08-07T07:19:04;98094.94;;;15.38;76.17
11314;BME280;5712;48.858;9.206;2023-08-07T07:21:32;98103.38;;;15.52;76.09
11314;BME280;5712;48.858;9.206;2023-08-07T07:24:01;98089.34;;;15.41;73.46
11314;BME280;5712;48.858;9.206;2023-08-07T07:26:28;98115.31;;;15.58;75.02
11314;BME280;5712;48.858;9.206;2023-08-07T07:28:54;98107.59;;;15.55;74.57
11314;BME280;5712;48.858;9.206;2023-08-07T07:31:21;98113.78;;;15.55;73.56
11314;BME280;5712;48.858;9.206;2023-08-07T07:33:47;98126.38;;;15.53;75.99
11314;BME280;5712;48.858;9.206;2023-08-07T07:36:15;98121.75;;;15.46;75.69
11314;BME280;5712;48.858;9.206;2023-08-07T07:38:42;98128.34;;;15.61;77.87
11314;BME280;5712;48.858;9.206;2023-08-07T07:41:10;98131.03;;;15.70;77.01
11314;BME280;5712;48.858;9.206;2023-08-07T07:43:36;98135.41;;;15.81;76.53
11314;BME280;5712;48.858;9.206;2023-08-07T07:46:03;98144.13;;;15.83;77.79
11314;BME280;5712;48.858;9.206;2023-08-07T07:48:30;98136.25;;;15.81;77.73
11314;BME280;5712;48.858;9.206;2023-08-07T07:50:58;98131.91;;;15.90;77.40
11314;BME280;5712;48.858;9.206;2023-08-07T07:53:25;98132.88;;;15.70;77.17
11314;BME280;5712;48.858;9.206;2023-08-07T07:55:52;98136.53;;;15.78;77.03
11314;BME280;5712;48.858;9.206;2023-08-07T07:58:19;98138.78;;;15.73;76.18
11314;BME280;5712;48.858;9.206;2023-08-07T08:00:46;98142.13;;;15.75;76.95
11314;BME280;5712;48.858;9.206;2023-08-07T08:03:13;98152.38;;;15.80;76.48
11314;BME280;5712;48.858;9.206;2023-08-07T08:05:39;98133.03;;;15.78;74.41
11314;BME280;5712;48.858;9.206;2023-08-07T08:08:06;98139.91;;;15.80;74.68
11314;BME280;5712;48.858;9.206;2023-08-07T08:10:33;98141.31;;;15.84;73.54
11314;BME280;5712;48.858;9.206;2023-08-07T08:13:00;98143.69;;;15.87;72.85
11314;BME280;5712;48.858;9.206;2023-08-07T08:15:29;98146.59;;;15.75;74.33
11314;BME280;5712;48.858;9.206;2023-08-07T08:17:56;98141.56;;;15.81;73.91
11314;BME280;5712;48.858;9.206;2023-08-07T08:20:22;98150.56;;;15.90;73.89
11314;BME280;5712;48.858;9.206;2023-08-07T08:22:49;98150.56;;;15.90;72.80
11314;BME280;5712;48.858;9.206;2023-08-07T08:25:16;98150.81;;;15.68;73.23
11314;BME280;5712;48.858;9.206;2023-08-07T08:27:43;98166.25;;;15.74;75.22
11314;BME280;5712;48.858;9.206;2023-08-07T08:30:10;98183.44;;;16.00;76.51
11314;BME280;5712;48.858;9.206;2023-08-07T08:32:38;98157.03;;;15.97;74.47
11314;BME280;5712;48.858;9.206;2023-08-07T08:35:05;98151.56;;;16.17;72.26
11314;BME280;5712;48.858;9.206;2023-08-07T08:37:31;98132.91;;;16.17;70.90
11314;BME280;5712;48.858;9.206;2023-08-07T08:39:58;98144.44;;;16.36;71.63
11314;BME280;5712;48.858;9.206;2023-08-07T08:42:24;98144.16;;;16.49;70.11
11314;BME280;5712;48.858;9.206;2023-08-07T08:44:52;98141.88;;;16.63;68.85
11314;BME280;5712;48.858;9.206;2023-08-07T08:47:20;98127.41;;;16.66;67.96
11314;BME280;5712;48.858;9.206;2023-08-07T08:49:50;98123.31;;;16.71;65.22
11314;BME280;5712;48.858;9.206;2023-08-07T08:52:19;98137.50;;;16.81;64.86
11314;BME280;5712;48.858;9.206;2023-08-07T08:54:47;98128.66;;;16.71;64.90
11314;BME280;5712;48.858;9.206;2023-08-07T08:57:14;98116.59;;;16.67;62.01
11314;BME280;5712;48.858;9.206;2023-08-07T08:59:41;98135.81;;;16.80;62.96
11314;BME280;5712;48.858;9.206;2023-08-07T09:02:08;98118.38;;;16.86;62.19
11314;BME280;5712;48.858;9.206;2023-08-07T09:04:35;98137.44;;;17.00;62.52
11314;BME280;5712;48.858;9.206;2023-08-07T09:07:04;98130.19;;;17.20;62.43
11314;BME280;5712;48.858;9.206;2023-08-07T09:09:31;98118.06;;;17.25;60.59
11314;BME280;5712;48.858;9.206;2023-08-07T09:11:58;98132.16;;;17.27;61.55
11314;BME280;5712;48.858;9.206;2023-08-07T09:14:27;98143.91;;;17.34;61.62
11314;BME280;5712;48.858;9.206;2023-08-07T09:16:58;98153.50;;;17.27;62.43
11314;BME280;5712;48.858;9.206;2023-08-07T09:19:25;98138.03;;;17.31;61.46
11314;BME280;5712;48.858;9.206;2023-08-07T09:21:54;98151.75;;;17.36;61.70
11314;BME280;5712;48.858;9.206;2023-08-07T09:24:22;98166.97;;;17.45;62.04
11314;BME280;5712;48.858;9.206;2023-08-07T09:26:51;98162.38;;;17.64;62.01
11314;BME280;5712;48.858;9.206;2023-08-07T09:29:18;98159.28;;;17.59;60.80
11314;BME280;5712;48.858;9.206;2023-08-07T09:31:44;98149.47;;;17.50;60.69
11314;BME280;5712;48.858;9.206;2023-08-07T09:34:11;98153.94;;;17.59;59.95
11314;BME280;5712;48.858;9.206;2023-08-07T09:36:40;98163.78;;;17.59;60.19
11314;BME280;5712;48.858;9.206;2023-08-07T09:39:07;98156.13;;;17.73;59.61
11314;BME280;5712;48.858;9.206;2023-08-07T09:41:35;98154.91;;;17.85;59.81
11314;BME280;5712;48.858;9.206;2023-08-07T09:44:06;98126.03;;;17.71;56.59
11314;BME280;5712;48.858;9.206;2023-08-07T09:46:40;98157.31;;;17.61;58.74
11314;BME280;5712;48.858;9.206;2023-08-07T09:49:07;98164.31;;;17.62;58.96
11314;BME280;5712;48.858;9.206;2023-08-07T09:51:41;98153.53;;;17.54;58.59
11314;BME280;5712;48.858;9.206;2023-08-07T09:54:08;98156.78;;;17.75;59.91
11314;BME280;5712;48.858;9.206;2023-08-07T09:56:36;98154.22;;;17.83;58.29
11314;BME280;5712;48.858;9.206;2023-08-07T09:59:03;98156.38;;;17.97;58.83
11314;BME280;5712;48.858;9.206;2023-08-07T10:01:30;98176.34;;;18.20;59.50
11314;BME280;5712;48.858;9.206;2023-08-07T10:03:57;98161.66;;;18.24;58.13
11314;BME280;5712;48.858;9.206;2023-08-07T10:06:24;98139.72;;;18.21;56.36
11314;BME280;5712;48.858;9.206;2023-08-07T10:08:51;98161.56;;;18.43;58.12
11314;BME280;5712;48.858;9.206;2023-08-07T10:11:18;98159.38;;;18.64;58.49
11314;BME280;5712;48.858;9.206;2023-08-07T10:13:47;98136.19;;;18.73;55.28
11314;BME280;5712;48.858;9.206;2023-08-07T10:16:14;98148.13;;;19.04;57.06
11314;BME280;5712;48.858;9.206;2023-08-07T10:18:40;98151.13;;;19.26;55.86
11314;BME280;5712;48.858;9.206;2023-08-07T10:21:07;98115.34;;;19.35;53.02
11314;BME280;5712;48.858;9.206;2023-08-07T10:23:35;98124.72;;;19.39;53.03
11314;BME280;5712;48.858;9.206;2023-08-07T10:26:03;98131.06;;;19.30;53.12
11314;BME280;5712;48.858;9.206;2023-08-07T10:28:32;98126.00;;;19.02;52.36
11314;BME280;5712;48.858;9.206;2023-08-07T10:31:01;98160.94;;;18.92;54.45
11314;BME280;5712;48.858;9.206;2023-08-07T10:33:28;98147.13;;;18.79;53.84
11314;BME280;5712;48.858;9.206;2023-08-07T10:35:57;98167.47;;;18.72;55.43
11314;BME280;5712;48.858;9.206;2023-08-07T10:38:25;98155.09;;;18.71;54.10
11314;BME280;5712;48.858;9.206;2023-08-07T10:41:01;98189.16;;;18.61;54.81
11314;BME280;5712;48.858;9.206;2023-08-07T10:43:29;98170.41;;;18.26;55.53
11314;BME280;5712;48.858;9.206;2023-08-07T10:46:03;98166.25;;;18.14;54.94
11314;BME280;5712;48.858;9.206;2023-08-07T10:48:37;98188.81;;;18.12;57.03
11314;BME280;5712;48.858;9.206;2023-08-07T10:51:04;98167.16;;;18.05;55.36
11314;BME280;5712;48.858;9.206;2023-08-07T10:53:32;98187.34;;;18.00;56.68
11314;BME280;5712;48.858;9.206;2023-08-07T10:56:01;98181.31;;;17.98;56.32
11314;BME280;5712;48.858;9.206;2023-08-07T10:58:30;98175.41;;;17.67;56.47
11314;BME280;5712;48.858;9.206;2023-08-07T11:01:24;98168.00;;;17.61;54.74
11314;BME280;5712;48.858;9.206;2023-08-07T11:03:57;98178.16;;;17.58;54.69
11314;BME280;5712;48.858;9.206;2023-08-07T11:06:25;98177.34;;;17.48;55.04
11314;BME280;5712;48.858;9.206;2023-08-07T11:08:52;98170.91;;;17.31;54.62
11314;BME280;5712;48.858;9.206;2023-08-07T11:11:19;98182.66;;;17.11;55.10
11314;BME280;5712;48.858;9.206;2023-08-07T11:13:46;98189.03;;;16.91;56.57
11314;BME280;5712;48.858;9.206;2023-08-07T11:16:13;98199.88;;;16.80;57.63
11314;BME280;5712;48.858;9.206;2023-08-07T11:18:42;98206.47;;;16.76;58.80
11314;BME280;5712;48.858;9.206;2023-08-07T11:21:09;98214.22;;;16.79;59.35
11314;BME280;5712;48.858;9.206;2023-08-07T11:23:36;98206.47;;;16.86;58.47
11314;BME280;5712;48.858;9.206;2023-08-07T11:26:03;98218.53;;;16.99;59.37
11314;BME280;5712;48.858;9.206;2023-08-07T11:28:30;98214.03;;;17.09;59.40
11314;BME280;5712;48.858;9.206;2023-08-07T11:30:57;98210.88;;;17.23;58.28
11314;BME280;5712;48.858;9.206;2023-08-07T11:33:24;98214.50;;;17.41;58.95
11314;BME280;5712;48.858;9.206;2023-08-07T11:35:53;98206.28;;;17.62;58.41
11314;BME280;5712;48.858;9.206;2023-08-07T11:38:29;98202.84;;;17.69;57.71
11314;BME280;5712;48.858;9.206;2023-08-07T11:40:57;98219.81;;;17.78;59.31
11314;BME280;5712;48.858;9.206;2023-08-07T11:43:26;98211.38;;;17.82;59.35
11314;BME280;5712;48.858;9.206;2023-08-07T11:45:53;98198.00;;;17.82;57.70
11314;BME280;5712;48.858;9.206;2023-08-07T11:48:23;98199.44;;;17.77;57.49
11314;BME280;5712;48.858;9.206;2023-08-07T11:50:51;98210.13;;;17.50;57.66
11314;BME280;5712;48.858;9.206;2023-08-07T11:53:19;98214.91;;;17.46;59.14
11314;BME280;5712;48.858;9.206;2023-08-07T11:55:47;98230.53;;;17.41;61.00
11314;BME280;5712;48.858;9.206;2023-08-07T11:58:14;98237.44;;;17.34;61.70
11314;BME280;5712;48.858;9.206;2023-08-07T12:00:43;98241.22;;;17.41;62.08
11314;BME280;5712;48.858;9.206;2023-08-07T12:03:23;98238.41;;;17.33;61.29
11314;BME280;5712;48.858;9.206;2023-08-07T12:05:51;98237.69;;;17.41;60.54
11314;BME280;5712;48.858;9.206;2023-08-07T12:08:19;98231.56;;;17.21;59.15
11314;BME280;5712;48.858;9.206;2023-08-07T12:10:49;98251.47;;;17.36;61.44
11314;BME280;5712;48.858;9.206;2023-08-07T12:13:16;98277.22;;;17.37;66.58
11314;BME280;5712;48.858;9.206;2023-08-07T12:15:42;98268.19;;;17.57;64.31
11314;BME280;5712;48.858;9.206;2023-08-07T12:18:09;98255.72;;;17.75;61.88
11314;BME280;5712;48.858;9.206;2023-08-07T12:20:37;98237.72;;;17.77;58.64
11314;BME280;5712;48.858;9.206;2023-08-07T12:23:03;98242.00;;;17.88;59.45
11314;BME280;5712;48.858;9.206;2023-08-07T12:25:31;98246.31;;;17.98;60.82
11314;BME280;5712;48.858;9.206;2023-08-07T12:27:58;98253.34;;;18.26;60.59
11314;BME280;5712;48.858;9.206;2023-08-07T12:30:24;98251.16;;;18.39;59.44
11314;BME280;5712;48.858;9.206;2023-08-07T12:32:51;98255.84;;;18.37;59.64
11314;BME280;5712;48.858;9.206;2023-08-07T12:35:18;98233.00;;;18.16;57.92
11314;BME280;5712;48.858;9.206;2023-08-07T12:37:44;98257.50;;;18.11;60.58
11314;BME280;5712;48.858;9.206;2023-08-07T12:40:11;98257.97;;;18.24;60.10
11314;BME280;5712;48.858;9.206;2023-08-07T12:42:39;98246.09;;;18.36;60.35
11314;BME280;5712;48.858;9.206;2023-08-07T12:45:06;98239.47;;;18.40;58.96
11314;BME280;5712;48.858;9.206;2023-08-07T12:47:32;98235.97;;;18.30;58.91
11314;BME280;5712;48.858;9.206;2023-08-07T12:49:59;98250.41;;;18.47;59.73
11314;BME280;5712;48.858;9.206;2023-08-07T12:52:25;98240.16;;;18.60;60.19
11314;BME280;5712;48.858;9.206;2023-08-07T12:54:52;98243.16;;;18.74;58.77
11314;BME280;5712;48.858;9.206;2023-08-07T12:57:18;98246.75;;;18.83;58.43
11314;BME280;5712;48.858;9.206;2023-08-07T12:59:46;98244.19;;;18.64;58.12
11314;BME280;5712;48.858;9.206;2023-08-07T13:02:13;98251.63;;;18.52;59.12
11314;BME280;5712;48.858;9.206;2023-08-07T13:04:39;98260.47;;;18.35;60.27
11314;BME280;5712;48.858;9.206;2023-08-07T13:07:06;98260.72;;;18.15;60.02
11314;BME280;5712;48.858;9.206;2023-08-07T13:09:33;98267.50;;;18.09;61.21